Time;durP1;ratioP1;P1;durP2;ratioP2;P2;SDS_P1;SDS_P2;PMS_P1;PMS_P2;Temp;Humidity;BMP_temperature;BMP_pressure;BME280_temperature;BME280_humidity;BME280_pressure;Samples;Min_cycle;Max_cycle;Signal;HPM_P1;HPM_P2
2021/01/25 00:01:30;;;;;;;28.27;12.73;;;;;;;-0.35;90.41;98883.28;1663881;84;25822;-67
2021/01/25 00:03:56;;;;;;;32.83;15.63;;;;;;;-0.31;90.42;98889.78;1658885;84;26663;-67
2021/01/25 00:06:22;;;;;;;24.72;12.55;;;;;;;-0.29;90.42;98889.28;1683322;83;26296;-67
2021/01/25 00:08:48;;;;;;;25.60;13.40;;;;;;;-0.27;90.42;98889.65;1662523;84;28594;-67
2021/01/25 00:11:14;;;;;;;22.87;12.00;;;;;;;-0.26;90.45;98894.46;1665175;84;26106;-67
2021/01/25 00:13:40;;;;;;;23.75;12.63;;;;;;;-0.27;90.49;98886.16;1663807;84;26174;-67
2021/01/25 00:16:06;;;;;;;28.75;14.45;;;;;;;-0.28;90.47;98889.69;1658970;84;25921;-68
2021/01/25 00:18:32;;;;;;;32.42;16.32;;;;;;;-0.25;90.51;98892.24;1665048;84;25970;-67
2021/01/25 00:20:58;;;;;;;29.90;13.90;;;;;;;-0.26;90.50;98891.83;1663303;84;28535;-67
2021/01/25 00:23:24;;;;;;;27.32;12.78;;;;;;;-0.24;90.50;98896.15;1683571;83;25821;-68
2021/01/25 00:25:51;;;;;;;28.80;13.88;;;;;;;-0.24;90.48;98892.65;1672014;82;26764;-67
2021/01/25 00:28:17;;;;;;;24.72;12.88;;;;;;;-0.25;90.50;98893.10;1708589;82;27128;-68
2021/01/25 00:30:43;;;;;;;29.90;14.13;;;;;;;-0.22;90.50;98902.23;1707928;82;25898;-68
2021/01/25 00:33:09;;;;;;;31.57;15.75;;;;;;;-0.20;90.50;98904.37;1721358;81;28536;-68
2021/01/25 00:35:35;;;;;;;23.77;11.83;;;;;;;-0.20;90.48;98903.50;1713687;82;25785;-68
2021/01/25 00:38:01;;;;;;;27.27;13.48;;;;;;;-0.18;90.48;98913.55;1712395;82;25840;-68
2021/01/25 00:40:27;;;;;;;23.45;12.75;;;;;;;-0.18;90.47;98906.51;1711743;82;25812;-68
2021/01/25 00:42:53;;;;;;;27.27;13.10;;;;;;;-0.19;90.47;98913.13;1712122;82;25744;-68
2021/01/25 00:45:19;;;;;;;30.20;14.05;;;;;;;-0.19;90.48;98919.72;1714798;82;27487;-68
2021/01/25 00:47:45;;;;;;;25.97;13.55;;;;;;;-0.18;90.47;98916.17;1710139;82;27256;-68
2021/01/25 00:50:12;;;;;;;32.10;13.98;;;;;;;-0.17;90.50;98913.95;1714673;82;25831;-68
2021/01/25 00:52:38;;;;;;;26.37;13.22;;;;;;;-0.15;90.47;98913.45;1713495;82;26203;-68
2021/01/25 00:55:06;;;;;;;37.63;14.33;;;;;;;-0.16;90.47;98919.63;1710592;82;25856;-68
2021/01/25 00:57:32;;;;;;;27.60;13.93;;;;;;;-0.16;90.46;98916.55;1711015;82;27716;-68
2021/01/25 00:59:58;;;;;;;26.77;13.70;;;;;;;-0.16;90.48;98920.49;1714136;82;27472;-68
2021/01/25 01:02:24;;;;;;;29.10;14.10;;;;;;;-0.13;90.49;98923.05;1716397;82;25848;-68
2021/01/25 01:04:50;;;;;;;28.52;13.45;;;;;;;-0.11;90.49;98933.08;1707319;82;26395;-68
2021/01/25 01:07:16;;;;;;;30.27;14.33;;;;;;;-0.11;90.47;98936.16;1713906;82;25773;-68
2021/01/25 01:09:43;;;;;;;28.15;14.50;;;;;;;-0.10;90.47;98934.80;1714423;82;28068;-68
2021/01/25 01:12:09;;;;;;;27.42;12.45;;;;;;;-0.08;90.47;98938.27;1713196;82;25802;-68
2021/01/25 01:14:35;;;;;;;25.92;13.88;;;;;;;-0.08;90.47;98942.66;1716006;82;26534;-68
2021/01/25 01:17:01;;;;;;;32.20;14.93;;;;;;;-0.09;90.45;98940.94;1713144;82;26533;-68
2021/01/25 01:19:27;;;;;;;23.77;12.78;;;;;;;-0.10;90.43;98947.11;1712119;82;25885;-68
2021/01/25 01:21:53;;;;;;;30.02;13.25;;;;;;;-0.07;90.48;98953.61;1714242;82;28274;-68
2021/01/25 01:24:19;;;;;;;29.63;14.43;;;;;;;-0.07;90.47;98958.88;1714287;82;26273;-68
2021/01/25 01:26:47;;;;;;;27.20;12.82;;;;;;;-0.08;90.43;98953.20;1718464;81;26800;-68
2021/01/25 01:29:15;;;;;;;36.25;14.93;;;;;;;-0.08;90.44;98955.83;1704653;82;26834;-68
2021/01/25 01:31:42;;;;;;;29.70;13.20;;;;;;;-0.09;90.42;98955.42;1706901;82;25856;-68
2021/01/25 01:34:08;;;;;;;27.32;12.20;;;;;;;-0.09;90.45;98955.42;1710424;82;28226;-68
2021/01/25 01:36:34;;;;;;;17.75;9.20;;;;;;;-0.12;90.47;98962.09;1704080;82;26201;-68
2021/01/25 01:39:00;;;;;;;24.02;12.20;;;;;;;-0.14;90.52;98961.27;1711008;82;25879;-68
2021/01/25 01:41:26;;;;;;;23.45;11.28;;;;;;;-0.17;90.53;98963.98;1708819;82;27964;-67
2021/01/25 01:43:53;;;;;;;20.23;9.75;;;;;;;-0.16;90.55;98970.97;1710475;82;25870;-68
2021/01/25 01:46:19;;;;;;;19.30;9.30;;;;;;;-0.15;90.58;98975.34;1719719;81;28226;-68
2021/01/25 01:48:45;;;;;;;18.70;9.60;;;;;;;-0.14;90.56;98973.11;1713732;82;26330;-68
2021/01/25 01:51:11;;;;;;;18.27;9.78;;;;;;;-0.15;90.54;98981.47;1708193;82;26660;-67
2021/01/25 01:53:38;;;;;;;24.77;11.45;;;;;;;-0.12;90.56;98976.12;1722422;81;26178;-67
2021/01/25 01:56:05;;;;;;;22.95;10.72;;;;;;;-0.10;90.56;98991.88;1694024;83;25939;-67
2021/01/25 01:58:31;;;;;;;23.15;10.98;;;;;;;-0.11;90.53;98991.02;1722108;81;27355;-68
2021/01/25 02:00:57;;;;;;;22.55;10.08;;;;;;;-0.10;90.51;98987.92;1704105;82;26405;-67
2021/01/25 02:03:23;;;;;;;22.15;11.38;;;;;;;-0.14;90.51;98987.14;1704233;82;25915;-68
2021/01/25 02:05:51;;;;;;;26.48;12.50;;;;;;;-0.14;90.53;98983.65;1711685;82;25899;-68
2021/01/25 02:08:21;;;;;;;22.13;11.50;;;;;;;-0.12;90.54;98990.60;1711023;82;25735;-67
2021/01/25 02:10:50;;;;;;;21.17;9.65;;;;;;;-0.11;90.53;98986.20;1720584;81;27460;-68
2021/01/25 02:13:18;;;;;;;21.27;10.55;;;;;;;-0.12;90.49;98987.97;1711390;82;25899;-68
2021/01/25 02:15:44;;;;;;;20.17;10.00;;;;;;;-0.13;90.48;98985.38;1711063;82;25907;-68
2021/01/25 02:18:10;;;;;;;21.35;10.60;;;;;;;-0.12;90.48;98988.42;1709635;82;25833;-68
2021/01/25 02:20:42;;;;;;;25.02;11.95;;;;;;;-0.12;90.50;98995.87;1710396;82;26003;-68
2021/01/25 02:23:46;;;;;;;22.95;11.18;;;;;;;-0.10;90.45;98999.33;1695176;83;29649;-68
2021/01/25 02:26:38;;;;;;;23.02;10.95;;;;;;;-0.09;90.45;99004.14;1710232;82;25745;-67
2021/01/25 02:29:05;;;;;;;24.70;12.98;;;;;;;-0.06;90.44;99010.64;1708808;82;25737;-68
2021/01/25 02:31:32;;;;;;;19.65;11.28;;;;;;;-0.05;90.42;99008.42;1707798;82;25830;-68
2021/01/25 02:33:59;;;;;;;18.20;9.23;;;;;;;-0.04;90.41;99008.38;1704499;82;25981;-69
2021/01/25 02:36:28;;;;;;;16.67;8.83;;;;;;;-0.04;90.34;99014.09;1704434;82;28321;-68
2021/01/25 02:38:55;;;;;;;17.45;9.28;;;;;;;-0.05;90.37;99011.05;1704549;82;27246;-68
2021/01/25 02:41:26;;;;;;;18.62;9.30;;;;;;;-0.07;90.41;99012.86;1704130;82;26119;-68
2021/01/25 02:43:53;;;;;;;21.85;10.90;;;;;;;-0.07;90.39;99015.50;1700785;82;27026;-68
2021/01/25 02:46:21;;;;;;;25.57;11.85;;;;;;;-0.06;90.41;99026.45;1709186;82;26017;-68
2021/01/25 02:48:47;;;;;;;26.70;12.03;;;;;;;-0.06;90.39;99019.41;1698594;82;27493;-68
2021/01/25 02:51:13;;;;;;;32.17;14.25;;;;;;;-0.04;90.38;99022.86;1705115;82;25772;-68
2021/01/25 02:53:40;;;;;;;43.20;19.48;;;;;;;-0.01;90.35;99025.41;1700809;82;26652;-68
2021/01/25 02:56:07;;;;;;;39.42;16.32;;;;;;;0.02;90.31;99022.25;1705926;82;25884;-68
2021/01/25 02:58:35;;;;;;;38.40;17.25;;;;;;;0.03;90.29;99023.53;1704946;82;25856;-68
2021/01/25 03:01:02;;;;;;;48.87;20.48;;;;;;;0.04;90.27;99024.39;1702535;82;27473;-68
2021/01/25 03:03:34;;;;;;;42.65;18.87;;;;;;;0.05;90.27;99017.77;1707781;82;25788;-68
2021/01/25 03:06:00;;;;;;;40.25;17.67;;;;;;;0.05;90.26;99017.77;1703207;82;25781;-68
2021/01/25 03:08:27;;;;;;;51.55;20.20;;;;;;;0.04;90.21;99015.17;1722265;81;27969;-67
2021/01/25 03:10:54;;;;;;;37.83;16.67;;;;;;;0.00;90.21;99015.27;1720442;81;25948;-67
2021/01/25 03:13:29;;;;;;;42.23;19.67;;;;;;;0.00;90.26;99022.33;1725800;81;27470;-67
2021/01/25 03:15:57;;;;;;;45.65;20.32;;;;;;;-0.02;90.28;99025.45;1709325;82;25911;-67
2021/01/25 03:18:25;;;;;;;49.23;20.82;;;;;;;-0.04;90.29;99021.55;1711638;82;26515;-67
2021/01/25 03:20:53;;;;;;;44.90;17.95;;;;;;;-0.04;90.29;99022.00;1717476;82;25971;-67
2021/01/25 03:23:19;;;;;;;40.80;16.87;;;;;;;-0.04;90.32;99028.59;1714736;82;25798;-68
2021/01/25 03:25:47;;;;;;;39.13;18.77;;;;;;;-0.05;90.33;99027.72;1710804;82;27843;-68
2021/01/25 03:28:13;;;;;;;38.80;17.95;;;;;;;-0.06;90.34;99030.39;1720587;81;25824;-68
2021/01/25 03:30:40;;;;;;;36.08;15.95;;;;;;;-0.05;90.36;99023.77;1725941;81;25777;-67
2021/01/25 03:33:07;;;;;;;39.65;18.48;;;;;;;-0.04;90.36;99020.69;1709425;82;26231;-67
2021/01/25 03:35:33;;;;;;;41.25;17.25;;;;;;;-0.05;90.33;99019.82;1696308;83;25865;-67
2021/01/25 03:37:59;;;;;;;40.90;16.77;;;;;;;-0.03;90.37;99030.31;1710804;82;27532;-67
2021/01/25 03:40:26;;;;;;;36.75;15.72;;;;;;;-0.05;90.36;99030.35;1723485;81;27250;-67
2021/01/25 03:42:52;;;;;;;43.98;18.00;;;;;;;-0.07;90.37;99041.37;1705524;82;25874;-67
2021/01/25 03:45:18;;;;;;;38.53;18.80;;;;;;;-0.07;90.36;99039.20;1711116;82;26384;-67
2021/01/25 03:47:44;;;;;;;45.88;19.80;;;;;;;-0.06;90.36;99044.88;1710449;82;25858;-68
2021/01/25 03:50:12;;;;;;;47.27;19.23;;;;;;;-0.03;90.34;99046.11;1705203;82;27488;-67
2021/01/25 03:52:38;;;;;;;49.60;20.17;;;;;;;-0.02;90.31;99053.98;1710848;82;25905;-67
2021/01/25 03:55:06;;;;;;;45.75;19.55;;;;;;;-0.02;90.31;99043.89;1713471;82;26113;-68
2021/01/25 03:57:32;;;;;;;42.08;18.32;;;;;;;0.00;90.30;99044.72;1707543;82;26481;-68
2021/01/25 03:59:58;;;;;;;41.05;18.02;;;;;;;-0.02;90.28;99041.27;1705799;82;25831;-67
2021/01/25 04:02:25;;;;;;;43.63;19.37;;;;;;;-0.03;90.28;99040.39;1711560;82;27487;-68
2021/01/25 04:04:51;;;;;;;34.10;14.65;;;;;;;-0.03;90.28;99039.53;1720353;81;25786;-61
2021/01/25 04:07:18;;;;;;;46.53;19.70;;;;;;;-0.02;90.29;99041.27;1722209;81;26002;-61
2021/01/25 04:09:44;;;;;;;39.10;16.25;;;;;;;-0.03;90.25;99041.71;1710838;82;27882;-61
2021/01/25 04:12:10;;;;;;;40.10;17.85;;;;;;;-0.03;90.25;99046.98;1709795;82;25827;-61
2021/01/25 04:14:36;;;;;;;57.62;22.82;;;;;;;-0.06;90.21;99039.61;1721370;81;27366;-61
2021/01/25 04:17:05;;;;;;;51.42;21.33;;;;;;;-0.05;90.22;99047.47;1722459;81;25897;-61
2021/01/25 04:19:31;;;;;;;57.85;21.97;;;;;;;-0.02;90.21;99046.52;1722422;81;25804;-61
2021/01/25 04:21:57;;;;;;;53.52;20.97;;;;;;;-0.02;90.19;99041.27;1713187;82;26831;-61
2021/01/25 04:24:23;;;;;;;60.15;22.62;;;;;;;-0.02;90.17;99043.89;1711466;82;25934;-61
2021/01/25 04:26:49;;;;;;;61.48;21.30;;;;;;;-0.03;90.17;99045.66;1712187;82;28230;-62
2021/01/25 04:29:15;;;;;;;60.35;22.35;;;;;;;-0.03;90.17;99053.56;1707984;82;26285;-62
2021/01/25 04:31:41;;;;;;;69.92;25.15;;;;;;;0.00;90.19;99047.35;1707736;82;25986;-61
2021/01/25 04:34:08;;;;;;;62.48;22.93;;;;;;;0.00;90.16;99049.98;1712877;82;26033;-61
2021/01/25 04:36:34;;;;;;;51.88;21.35;;;;;;;0.02;90.16;99054.73;1710939;82;26251;-61
2021/01/25 04:39:01;;;;;;;59.13;23.75;;;;;;;0.00;90.17;99052.62;1699262;82;29568;-61
2021/01/25 04:41:29;;;;;;;70.92;24.43;;;;;;;0.01;90.16;99060.90;1713190;82;25889;-61
2021/01/25 04:43:57;;;;;;;85.22;28.90;;;;;;;0.04;90.15;99063.91;1712086;82;26327;-61
2021/01/25 04:46:24;;;;;;;78.10;26.80;;;;;;;0.03;90.15;99061.72;1716725;82;25932;-61
2021/01/25 04:48:50;;;;;;;98.82;28.98;;;;;;;-0.01;90.12;99062.74;1722432;81;25839;-61
2021/01/25 04:51:18;;;;;;;66.67;23.25;;;;;;;-0.01;90.16;99062.29;1677884;83;27716;-60
2021/01/25 04:53:45;;;;;;;81.80;25.15;;;;;;;0.01;90.18;99062.22;1677408;83;25873;-61
2021/01/25 04:56:13;;;;;;;76.02;24.43;;;;;;;-0.01;90.20;99064.92;1678844;83;25920;-61
2021/01/25 04:58:39;;;;;;;85.30;26.17;;;;;;;-0.01;90.20;99060.11;1672135;83;26556;-61
2021/01/25 05:01:06;;;;;;;81.12;23.92;;;;;;;-0.01;90.22;99062.29;1675650;83;25895;-61
2021/01/25 05:03:32;;;;;;;74.97;24.47;;;;;;;0.00;90.21;99066.62;1707482;82;27816;-61
2021/01/25 05:05:58;;;;;;;74.17;22.27;;;;;;;0.02;90.24;99062.63;1703193;82;25779;-61
2021/01/25 05:08:24;;;;;;;79.80;23.57;;;;;;;0.06;90.26;99068.23;1708895;82;25849;-61
2021/01/25 05:10:50;;;;;;;88.25;26.33;;;;;;;0.08;90.26;99068.19;1708461;82;26587;-61
2021/01/25 05:13:22;;;;;;;64.00;21.62;;;;;;;0.09;90.24;99074.73;1703886;82;25793;-61
2021/01/25 05:15:51;;;;;;;67.35;20.05;;;;;;;0.09;90.22;99073.88;1696685;82;26948;-61
2021/01/25 05:18:24;;;;;;;64.22;22.30;;;;;;;0.09;90.26;99076.50;1693040;82;26443;-61
2021/01/25 05:20:56;;;;;;;52.98;16.90;;;;;;;0.10;90.30;99088.77;1692971;82;25897;-60
2021/01/25 05:23:22;;;;;;;;;;;;;;;0.12;90.33;99092.23;1716182;82;26365;-61
2021/01/25 05:25:48;;;;;;;69.32;19.55;;;;;;;0.12;90.29;99095.73;1714876;82;25916;-61
2021/01/25 05:28:18;;;;;;;72.17;22.52;;;;;;;0.13;90.34;99093.51;1707191;82;27562;-61
2021/01/25 05:30:46;;;;;;;67.22;22.10;;;;;;;0.13;90.30;99093.96;1704597;82;25787;-61
2021/01/25 05:33:13;;;;;;;65.95;21.73;;;;;;;0.15;90.27;99100.05;1704895;82;26445;-62
2021/01/25 05:35:42;;;;;;;79.37;21.52;;;;;;;0.17;90.28;99101.75;1676581;83;25918;-61
2021/01/25 05:38:09;;;;;;;61.18;19.85;;;;;;;0.19;90.27;99103.89;1699462;82;25743;-61
2021/01/25 05:40:38;;;;;;;55.80;19.23;;;;;;;0.22;90.24;99104.26;1705969;82;28579;-61
2021/01/25 05:43:13;;;;;;;55.03;20.90;;;;;;;0.23;90.25;99108.63;1670836;83;25828;-61
2021/01/25 05:45:39;;;;;;;55.25;19.75;;;;;;;0.24;90.23;99109.91;1669100;83;25814;-61
2021/01/25 05:48:14;;;;;;;46.98;17.85;;;;;;;0.24;90.21;99108.58;1706091;82;26379;-61
2021/01/25 05:50:43;;;;;;;63.13;20.65;;;;;;;0.26;90.22;99112.50;1705755;82;25758;-61
2021/01/25 05:53:13;;;;;;;67.60;20.32;;;;;;;0.24;90.20;99115.17;1674484;83;27572;-61
2021/01/25 05:55:41;;;;;;;63.05;21.48;;;;;;;0.26;90.22;99117.31;1707018;82;25831;-61
2021/01/25 05:58:08;;;;;;;60.15;20.60;;;;;;;0.26;90.21;99110.73;1704735;82;25815;-61
2021/01/25 06:00:35;;;;;;;56.58;21.95;;;;;;;0.28;90.22;99115.50;1701590;82;26254;-61
2021/01/25 06:03:08;;;;;;;48.87;17.52;;;;;;;0.29;90.20;99119.00;1706907;82;25847;-60
2021/01/25 06:05:41;;;;;;;64.97;23.00;;;;;;;0.26;90.18;99113.36;1674849;83;28429;-61
2021/01/25 06:08:41;;;;;;;51.15;19.42;;;;;;;0.25;90.20;99120.85;1703144;82;25893;-61
2021/01/25 06:11:23;;;;;;;46.90;18.35;;;;;;;0.27;90.22;99120.81;1686681;82;25842;-60
2021/01/25 06:13:58;;;;;;;;;;;;;;;0.26;90.22;99122.59;1706304;82;26594;-60
2021/01/25 06:16:29;;;;;;;41.05;16.65;;;;;;;0.28;90.22;99127.81;1701929;82;25828;-61
2021/01/25 06:19:03;;;;;;;42.30;17.73;;;;;;;0.26;90.22;99128.30;1678594;83;27671;-60
2021/01/25 06:21:33;;;;;;;36.30;15.75;;;;;;;0.24;90.22;99128.80;1661265;84;25867;-60
2021/01/25 06:24:05;;;;;;;39.88;16.93;;;;;;;0.23;90.25;99141.56;1665336;84;25940;-60
2021/01/25 06:26:33;;;;;;;45.58;16.55;;;;;;;0.22;90.22;99142.47;1659154;84;26060;-61
2021/01/25 06:29:04;;;;;;;46.20;18.42;;;;;;;0.22;90.25;99144.64;1685923;82;26348;-60
2021/01/25 06:31:39;;;;;;;45.17;17.20;;;;;;;0.23;90.26;99150.78;1723767;81;27673;-61
2021/01/25 06:34:09;;;;;;;43.35;17.82;;;;;;;0.23;90.26;99150.33;1693426;83;25897;-62
2021/01/25 06:36:39;;;;;;;38.28;17.10;;;;;;;0.22;90.23;99152.55;1710702;82;25905;-60
2021/01/25 06:39:07;;;;;;;35.95;17.30;;;;;;;0.22;90.24;99157.82;1711486;82;25763;-60
2021/01/25 06:41:41;;;;;;;40.88;16.20;;;;;;;0.24;90.27;99159.09;1690221;83;26484;-61
2021/01/25 06:44:10;;;;;;;40.70;17.32;;;;;;;0.25;90.26;99158.20;1708545;82;27577;-61
2021/01/25 06:46:40;;;;;;;43.65;16.50;;;;;;;0.23;90.24;99160.00;1721393;81;25958;-61
2021/01/25 06:49:08;;;;;;;42.17;16.02;;;;;;;0.23;90.25;99162.64;1708211;82;26219;-61
2021/01/25 06:51:42;;;;;;;35.75;15.25;;;;;;;0.20;90.27;99174.12;1707177;82;25956;-61
2021/01/25 06:54:11;;;;;;;39.75;16.50;;;;;;;0.18;90.27;99169.80;1710654;82;25927;-61
2021/01/25 06:56:57;;;;;;;41.00;17.15;;;;;;;0.18;90.28;99174.61;1690055;83;27640;-61
2021/01/25 06:59:27;;;;;;;48.42;19.37;;;;;;;0.18;90.28;99176.38;1723593;81;27066;-61
2021/01/25 07:01:55;;;;;;;40.43;15.43;;;;;;;0.19;90.29;99177.66;1708171;82;25836;-61
2021/01/25 07:04:25;;;;;;;47.27;18.32;;;;;;;0.22;90.30;99180.22;1723844;81;25907;-61
2021/01/25 07:06:54;;;;;;;53.98;18.57;;;;;;;0.20;90.24;99187.30;1710918;82;25897;-60
2021/01/25 07:09:32;;;;;;;45.98;18.92;;;;;;;0.20;90.29;99195.20;1710646;82;27534;-61
2021/01/25 07:12:01;;;;;;;44.85;16.17;;;;;;;0.22;90.27;99200.43;1711269;82;26482;-61
2021/01/25 07:14:31;;;;;;;57.05;21.48;;;;;;;0.24;90.30;99202.58;1706701;82;25797;-61
2021/01/25 07:16:59;;;;;;;51.58;19.15;;;;;;;0.22;90.25;99206.56;1712372;82;26593;-61
2021/01/25 07:19:27;;;;;;;54.50;19.10;;;;;;;0.24;90.28;99208.71;1724935;81;25900;-60
2021/01/25 07:21:54;;;;;;;46.83;15.15;;;;;;;0.25;90.26;99205.17;1719218;81;27991;-61
2021/01/25 07:24:26;;;;;;;56.45;21.70;;;;;;;0.27;90.28;99213.91;1714521;82;26553;-62
2021/01/25 07:26:59;;;;;;;54.98;20.27;;;;;;;0.26;90.26;99217.89;1711122;82;26000;-62
2021/01/25 07:29:26;;;;;;;53.60;18.75;;;;;;;0.25;90.26;99222.30;1726881;81;25999;-61
2021/01/25 07:31:54;;;;;;;50.50;19.98;;;;;;;0.26;90.27;99224.03;1712060;82;26522;-61
2021/01/25 07:34:23;;;;;;;52.75;18.20;;;;;;;0.24;90.25;99225.84;1693996;83;27556;-61
2021/01/25 07:36:50;;;;;;;53.38;19.37;;;;;;;0.28;90.29;99227.50;1717620;81;26556;-61
2021/01/25 07:39:19;;;;;;;58.20;21.70;;;;;;;0.28;90.26;99227.50;1707733;82;25906;-61
2021/01/25 07:41:46;;;;;;;48.05;18.65;;;;;;;0.31;90.27;99234.46;1709656;82;25874;-61
2021/01/25 07:44:14;;;;;;;49.95;18.60;;;;;;;0.34;90.30;99242.30;1709731;82;25809;-61
2021/01/25 07:46:44;;;;;;;57.48;21.20;;;;;;;0.36;90.27;99244.89;1709164;82;27565;-61
2021/01/25 07:49:10;;;;;;;49.58;19.12;;;;;;;0.35;90.26;99249.30;1722805;81;25855;-62
2021/01/25 07:51:40;;;;;;;41.73;19.37;;;;;;;0.36;90.24;99246.21;1723392;81;26617;-61
2021/01/25 07:54:13;;;;;;;46.15;18.17;;;;;;;0.37;90.24;99249.26;1708351;82;26463;-61
2021/01/25 07:56:39;;;;;;;53.80;20.57;;;;;;;0.33;90.22;99242.75;1707713;82;25850;-61
2021/01/25 07:59:09;;;;;;;35.05;16.60;;;;;;;0.33;90.23;99244.52;1695259;83;28605;-61
2021/01/25 08:01:41;;;;;;;47.55;18.80;;;;;;;0.34;90.26;99248.88;1710083;82;26328;-61
2021/01/25 08:04:11;;;;;;;46.20;18.82;;;;;;;0.36;90.28;99251.03;1707221;82;25934;-61
2021/01/25 08:06:38;;;;;;;37.13;16.40;;;;;;;0.32;90.27;99258.14;1689325;83;25909;-61
2021/01/25 08:09:12;;;;;;;38.38;16.52;;;;;;;0.31;90.28;99257.73;1706475;82;25844;-61
2021/01/25 08:11:40;;;;;;;45.95;19.27;;;;;;;0.32;90.33;99258.14;1723515;81;27734;-61
2021/01/25 08:14:29;;;;;;;51.13;19.70;;;;;;;0.32;90.33;99259.91;1698145;82;26212;-61
2021/01/25 08:17:00;;;;;;;47.58;19.85;;;;;;;0.35;90.34;99267.75;1711427;82;25860;-61
2021/01/25 08:19:43;;;;;;;51.18;18.82;;;;;;;0.37;90.38;99267.25;1713815;82;27132;-61
2021/01/25 08:22:22;;;;;;;38.30;16.12;;;;;;;0.40;90.35;99271.14;1698951;83;26795;-62
2021/01/25 08:24:58;;;;;;;36.28;14.03;;;;;;;0.41;90.35;99272.00;1711206;82;27087;-62
2021/01/25 08:27:25;;;;;;;34.00;15.05;;;;;;;0.38;90.33;99277.34;1709001;82;25796;-61
2021/01/25 08:30:13;;;;;;;33.28;13.95;;;;;;;0.32;90.32;99279.22;1704686;82;26512;-61
2021/01/25 08:32:44;;;;;;;39.15;14.15;;;;;;;0.30;90.31;99283.67;1708821;82;26547;-62
2021/01/25 08:35:11;;;;;;;35.23;14.33;;;;;;;0.27;90.31;99290.33;1700485;82;26385;-62
2021/01/25 08:37:38;;;;;;;33.40;15.50;;;;;;;0.25;90.34;99295.22;1706142;82;28342;-62
2021/01/25 08:40:20;;;;;;;33.67;15.55;;;;;;;0.25;90.38;99288.18;1701589;82;25805;-62
2021/01/25 08:42:47;;;;;;;31.73;14.20;;;;;;;0.27;90.35;99286.38;1698253;82;26461;-62
2021/01/25 08:45:37;;;;;;;43.08;20.27;;;;;;;0.32;90.35;99288.90;1690366;82;26412;-61
2021/01/25 08:48:08;;;;;;;31.68;15.10;;;;;;;0.34;90.33;99291.05;1664992;84;25864;-61
2021/01/25 08:50:37;;;;;;;38.30;16.62;;;;;;;0.38;90.33;99295.34;1668069;84;27856;-62
2021/01/25 08:53:16;;;;;;;39.63;16.67;;;;;;;0.40;90.31;99296.62;1710178;82;25963;-62
2021/01/25 08:55:48;;;;;;;32.90;14.68;;;;;;;0.41;90.28;99297.04;1718198;82;25816;-61
2021/01/25 08:58:18;;;;;;;35.30;14.58;;;;;;;0.42;90.25;99289.09;1715046;82;25834;-61
2021/01/25 09:00:48;;;;;;;36.33;14.40;;;;;;;0.42;90.22;99293.05;1711026;82;25867;-61
2021/01/25 09:03:13;;;;;;;32.65;15.18;;;;;;;0.43;90.19;99300.51;1711263;82;27505;-61
2021/01/25 09:05:40;;;;;;;37.05;15.60;;;;;;;0.43;90.14;99301.83;1662133;84;26528;-62
2021/01/25 09:08:07;;;;;;;37.78;15.08;;;;;;;0.45;90.17;99305.29;1687161;84;25854;-62
2021/01/25 09:10:33;;;;;;;32.73;15.78;;;;;;;0.42;90.08;99310.19;1662595;85;25846;-62
2021/01/25 09:12:59;;;;;;;30.02;13.58;;;;;;;0.42;90.09;99310.19;1718493;82;25747;-66
2021/01/25 09:15:26;;;;;;;37.83;16.02;;;;;;;0.45;90.11;99316.70;1715802;82;27521;-63
2021/01/25 09:17:55;;;;;;;33.83;16.23;;;;;;;0.45;90.09;99310.56;1715958;82;26373;-62
2021/01/25 09:20:22;;;;;;;38.78;17.90;;;;;;;0.43;90.07;99315.87;1719669;82;25780;-62
2021/01/25 09:22:49;;;;;;;38.38;16.97;;;;;;;0.45;90.06;99315.84;1713817;82;25998;-62
2021/01/25 09:25:17;;;;;;;36.70;16.70;;;;;;;0.46;90.06;99319.75;1672605;84;25854;-62
2021/01/25 09:27:43;;;;;;;50.08;20.48;;;;;;;0.46;90.02;99319.75;1717225;82;27490;-61
2021/01/25 09:30:14;;;;;;;41.95;17.92;;;;;;;0.48;90.03;99323.22;1688016;84;25896;-60
2021/01/25 09:32:41;;;;;;;38.38;18.42;;;;;;;0.53;90.05;99320.47;1696577;84;26434;-60
2021/01/25 09:35:13;;;;;;;39.95;16.93;;;;;;;0.56;90.06;99319.08;1723316;82;26725;-62
2021/01/25 09:37:40;;;;;;;35.52;16.50;;;;;;;0.58;90.00;99319.91;1717687;82;25755;-61
2021/01/25 09:40:08;;;;;;;37.28;14.68;;;;;;;0.57;89.95;99320.81;1716127;81;28641;-60
2021/01/25 09:42:34;;;;;;;31.15;15.65;;;;;;;0.54;89.94;99322.20;1723608;82;25877;-60
2021/01/25 09:45:00;;;;;;;34.50;15.88;;;;;;;0.53;89.96;99322.66;1719562;81;25890;-60
2021/01/25 09:47:26;;;;;;;32.23;15.72;;;;;;;0.56;89.96;99320.40;1715768;82;26361;-61
2021/01/25 09:49:53;;;;;;;27.98;12.85;;;;;;;0.56;89.98;99319.08;1711562;83;25778;-61
2021/01/25 09:52:19;;;;;;;25.95;11.83;;;;;;;0.54;89.95;99320.89;1715592;81;27483;-60
2021/01/25 09:54:45;;;;;;;25.40;13.22;;;;;;;0.55;89.96;99323.94;1706646;82;25935;-61
2021/01/25 09:57:11;;;;;;;36.53;14.75;;;;;;;0.53;89.94;99327.06;1682746;84;26547;-61
2021/01/25 09:59:37;;;;;;;27.80;13.70;;;;;;;0.53;89.90;99327.06;1669663;84;26509;-62
2021/01/25 10:02:03;;;;;;;29.35;13.48;;;;;;;0.53;89.89;99324.42;1673713;84;26381;-62
2021/01/25 10:04:29;;;;;;;28.65;12.37;;;;;;;0.60;89.93;99323.37;1673744;85;27811;-63
2021/01/25 10:06:55;;;;;;;27.10;13.13;;;;;;;0.63;89.91;99320.22;1670391;85;27360;-62
2021/01/25 10:09:21;;;;;;;21.97;10.82;;;;;;;0.67;89.88;99318.37;1673588;84;26438;-63
2021/01/25 10:11:47;;;;;;;24.35;12.05;;;;;;;0.72;89.90;99317.80;1678183;84;28063;-63
2021/01/25 10:14:13;;;;;;;27.00;12.35;;;;;;;0.76;89.85;99322.09;1665106;84;25784;-63
2021/01/25 10:16:40;;;;;;;25.68;13.10;;;;;;;0.81;89.83;99322.84;1670833;85;28609;-62
2021/01/25 10:19:06;;;;;;;19.90;11.05;;;;;;;0.82;89.79;99324.58;1671703;85;25870;-62
2021/01/25 10:21:32;;;;;;;23.45;10.72;;;;;;;0.86;89.77;99331.52;1678291;85;25804;-62
2021/01/25 10:23:58;;;;;;;21.95;11.05;;;;;;;0.85;89.67;99328.91;1672823;84;26904;-62
2021/01/25 10:26:24;;;;;;;26.68;12.65;;;;;;;0.84;89.64;99325.41;1670945;85;25804;-63
2021/01/25 10:28:50;;;;;;;23.85;11.68;;;;;;;0.87;89.67;99328.42;1682044;84;27517;-61
2021/01/25 10:31:17;;;;;;;26.82;12.35;;;;;;;0.88;89.61;99327.52;1667576;85;25429;-61
2021/01/25 10:33:43;;;;;;;23.35;12.25;;;;;;;0.92;89.62;99323.45;1670822;85;25818;-61
2021/01/25 10:36:11;;;;;;;23.20;12.45;;;;;;;0.93;89.57;99327.81;1671741;85;26401;-62
2021/01/25 10:38:37;;;;;;;25.80;12.45;;;;;;;0.94;89.54;99332.19;1671278;84;26380;-62
2021/01/25 10:41:05;;;;;;;23.07;12.10;;;;;;;0.93;89.47;99337.50;1674368;85;27630;-62
2021/01/25 10:43:31;;;;;;;23.20;12.13;;;;;;;0.91;89.45;99323.48;1677941;85;25911;-61
2021/01/25 10:57:40;;;;;;;28.27;14.28;;;;;;;1.63;88.98;99323.28;1776076;78;25782;-62
2021/01/25 11:00:13;;;;;;;27.42;12.93;;;;;;;1.56;88.99;99324.37;1728168;80;25903;-62
2021/01/25 11:02:41;;;;;;;30.37;14.07;;;;;;;1.56;89.12;99338.02;1726473;79;27456;-62
2021/01/25 11:05:11;;;;;;;25.50;13.45;;;;;;;1.50;89.10;99326.31;1727745;79;25808;-62
2021/01/25 11:07:39;;;;;;;24.92;13.90;;;;;;;1.46;89.02;99329.95;1710289;79;25956;-59
2021/01/25 11:10:12;;;;;;;27.77;12.35;;;;;;;1.45;89.03;99332.17;1707592;80;25859;-64
2021/01/25 11:12:40;;;;;;;24.80;13.53;;;;;;;1.39;88.96;99331.88;1720097;79;25799;-64
2021/01/25 11:15:09;;;;;;;28.67;14.60;;;;;;;1.31;88.76;99336.50;1719511;80;27742;-64
2021/01/25 11:17:37;;;;;;;27.32;13.30;;;;;;;1.21;88.58;99332.38;1728688;79;25903;-63
2021/01/25 11:20:07;;;;;;;25.72;14.63;;;;;;;1.22;88.60;99329.70;1726001;79;25790;-67
2021/01/25 11:22:35;;;;;;;28.92;15.28;;;;;;;1.23;88.60;99326.61;1724505;79;26037;-67
2021/01/25 11:25:04;;;;;;;27.98;13.95;;;;;;;1.28;88.66;99334.81;1718046;80;25791;-68
2021/01/25 11:27:33;;;;;;;34.80;14.50;;;;;;;1.26;88.50;99337.08;1702815;79;27461;-67
2021/01/25 11:30:01;;;;;;;27.25;14.50;;;;;;;1.24;88.45;99331.84;1731978;80;25862;-68
2021/01/25 11:32:28;;;;;;;28.62;15.13;;;;;;;1.20;88.36;99332.83;1729437;79;25824;-69
2021/01/25 11:34:56;;;;;;;32.88;15.35;;;;;;;1.12;88.38;99323.38;1717840;80;25849;-68
2021/01/25 11:37:24;;;;;;;32.15;15.50;;;;;;;1.16;88.23;99340.88;1720639;80;26422;-69
2021/01/25 11:39:52;;;;;;;31.48;15.55;;;;;;;1.12;88.24;99349.31;1727131;80;28774;-68